KMEV/MEV METAR and TAF weather

Enter ICAO airport designator
Station Type Date Time Source
KMEV METAR 2020/07/04 02:35 UTC NOAA

KMEV 040235Z AUTO 29015KT 10SM CLR 25/03 A3011 RMK AO2


Station Type Date Time Source
KMEV Decoded METAR 2020/07/04 02:35 UTC NOAA

Station name not available
Jul 03, 2020 - 10:35 PM EDT / 2020.07.04 0235 UTC
Wind: from the WNW (290 degrees) at 17 MPH (15 KT):0
Visibility: 10 mile(s):0
Sky conditions: clear
Temperature: 77 F (25 C)
Dew Point: 37 F (3 C)
Relative Humidity: 23%
Pressure (altimeter): 30.11 in. Hg (1019 hPa)
ob: KMEV 040235Z AUTO 29015KT 10SM CLR 25/03 A3011 RMK AO2
cycle: 2

Station Type Date Time Source
KMEV TAF 2020/07/03 18:30 UTC NOAA

TAF KMEV 031728Z 0318/0418 08004KT P6SM SKC
FM032100 22012G21KT P6SM SKC
FM040000 29016G28KT P6SM SKC
FM040600 12006KT P6SM SKC

Example: see airport list